YPKG/KGI METAR and TAF weather

Enter ICAO airport designator
Station Type Date Time Source
YPKG METAR 2021/01/17 20:00 UTC NOAA

YPKG 172000Z AUTO 10013KT 9999 // NCD 17/10 Q1020 RF00.0/000.0


Station Type Date Time Source
YPKG Decoded METAR 2021/01/17 20:00 UTC NOAA

Kalgoorlie Boulder Amo, Australia (YPKG) 30-47S 121-27E 370M
Jan 17, 2021 - 03:00 PM EST / 2021.01.17 2000 UTC
Wind: from the E (100 degrees) at 15 MPH (13 KT):0
Visibility: greater than 7 mile(s):0
Temperature: 62 F (17 C)
Dew Point: 50 F (10 C)
Relative Humidity: 63%
Pressure (altimeter): 30.12 in. Hg (1020 hPa)
ob: YPKG 172000Z AUTO 10013KT 9999 // NCD 17/10 Q1020 RF00.0/000.0
cycle: 20

Station Type Date Time Source
YPKG TAF 2021/01/17 18:00 UTC NOAA

TAF YPKG 171714Z 1718/1818 07013KT CAVOK

Example: see airport list